sensor_id;sensor_type;location;lat;lon;timestamp;P1;durP1;ratioP1;P2;durP2;ratioP2
33184;SDS011;19550;42.872;25.494;2023-08-20T00:01:04;12.02;;;10.50;;
33184;SDS011;19550;42.872;25.494;2023-08-20T00:03:31;12.55;;;10.55;;
33184;SDS011;19550;42.872;25.494;2023-08-20T00:05:59;14.52;;;10.43;;
33184;SDS011;19550;42.872;25.494;2023-08-20T00:08:27;13.85;;;10.13;;
33184;SDS011;19550;42.872;25.494;2023-08-20T00:10:54;11.93;;;10.43;;
33184;SDS011;19550;42.872;25.494;2023-08-20T00:13:21;14.13;;;10.95;;
33184;SDS011;19550;42.872;25.494;2023-08-20T00:15:48;16.10;;;10.80;;
33184;SDS011;19550;42.872;25.494;2023-08-20T00:18:15;12.70;;;10.68;;
33184;SDS011;19550;42.872;25.494;2023-08-20T00:20:42;12.68;;;10.38;;
33184;SDS011;19550;42.872;25.494;2023-08-20T00:23:11;12.75;;;10.63;;
33184;SDS011;19550;42.872;25.494;2023-08-20T00:25:40;15.15;;;10.88;;
33184;SDS011;19550;42.872;25.494;2023-08-20T00:28:07;15.03;;;10.57;;
33184;SDS011;19550;42.872;25.494;2023-08-20T00:30:34;13.82;;;10.52;;
33184;SDS011;19550;42.872;25.494;2023-08-20T00:33:00;14.60;;;10.45;;
33184;SDS011;19550;42.872;25.494;2023-08-20T00:35:27;17.85;;;10.48;;
33184;SDS011;19550;42.872;25.494;2023-08-20T00:37:54;13.50;;;10.60;;
33184;SDS011;19550;42.872;25.494;2023-08-20T00:40:21;14.15;;;10.70;;
33184;SDS011;19550;42.872;25.494;2023-08-20T00:42:49;15.10;;;11.02;;
33184;SDS011;19550;42.872;25.494;2023-08-20T00:45:16;12.50;;;10.50;;
33184;SDS011;19550;42.872;25.494;2023-08-20T00:47:43;12.18;;;10.82;;
33184;SDS011;19550;42.872;25.494;2023-08-20T00:50:10;12.55;;;10.15;;
33184;SDS011;19550;42.872;25.494;2023-08-20T00:52:38;13.35;;;10.50;;
33184;SDS011;19550;42.872;25.494;2023-08-20T00:55:06;12.48;;;10.38;;
33184;SDS011;19550;42.872;25.494;2023-08-20T01:00:03;12.45;;;10.93;;
33184;SDS011;19550;42.872;25.494;2023-08-20T01:02:34;14.60;;;10.65;;
33184;SDS011;19550;42.872;25.494;2023-08-20T01:05:02;13.07;;;10.63;;
33184;SDS011;19550;42.872;25.494;2023-08-20T01:07:44;12.55;;;10.75;;
33184;SDS011;19550;42.872;25.494;2023-08-20T01:10:22;12.88;;;10.30;;
33184;SDS011;19550;42.872;25.494;2023-08-20T01:12:56;15.48;;;10.55;;
33184;SDS011;19550;42.872;25.494;2023-08-20T01:15:25;13.52;;;10.82;;
33184;SDS011;19550;42.872;25.494;2023-08-20T01:17:52;13.57;;;10.45;;
33184;SDS011;19550;42.872;25.494;2023-08-20T01:20:19;13.40;;;10.95;;
33184;SDS011;19550;42.872;25.494;2023-08-20T01:22:56;11.57;;;10.38;;
33184;SDS011;19550;42.872;25.494;2023-08-20T01:25:45;13.07;;;11.30;;
33184;SDS011;19550;42.872;25.494;2023-08-20T01:28:27;12.52;;;10.30;;
33184;SDS011;19550;42.872;25.494;2023-08-20T01:30:55;14.80;;;11.07;;
33184;SDS011;19550;42.872;25.494;2023-08-20T01:33:24;11.40;;;10.05;;
33184;SDS011;19550;42.872;25.494;2023-08-20T01:35:51;13.77;;;11.75;;
33184;SDS011;19550;42.872;25.494;2023-08-20T01:38:18;12.18;;;10.88;;
33184;SDS011;19550;42.872;25.494;2023-08-20T01:40:44;19.20;;;11.80;;
33184;SDS011;19550;42.872;25.494;2023-08-20T01:43:11;18.70;;;11.25;;
33184;SDS011;19550;42.872;25.494;2023-08-20T01:45:40;17.45;;;11.60;;
33184;SDS011;19550;42.872;25.494;2023-08-20T01:48:07;12.43;;;10.55;;
33184;SDS011;19550;42.872;25.494;2023-08-20T01:50:34;13.57;;;11.57;;
33184;SDS011;19550;42.872;25.494;2023-08-20T01:53:01;12.90;;;10.45;;
33184;SDS011;19550;42.872;25.494;2023-08-20T01:55:29;17.55;;;10.52;;
33184;SDS011;19550;42.872;25.494;2023-08-20T01:57:55;17.73;;;11.23;;
33184;SDS011;19550;42.872;25.494;2023-08-20T02:00:22;13.85;;;11.20;;
33184;SDS011;19550;42.872;25.494;2023-08-20T02:02:51;12.98;;;10.48;;
33184;SDS011;19550;42.872;25.494;2023-08-20T02:05:18;14.23;;;10.77;;
33184;SDS011;19550;42.872;25.494;2023-08-20T02:07:45;12.02;;;10.20;;
33184;SDS011;19550;42.872;25.494;2023-08-20T02:10:12;14.48;;;11.23;;
33184;SDS011;19550;42.872;25.494;2023-08-20T02:12:39;19.25;;;12.02;;
33184;SDS011;19550;42.872;25.494;2023-08-20T02:15:07;12.48;;;11.05;;
33184;SDS011;19550;42.872;25.494;2023-08-20T02:17:36;12.82;;;10.85;;
33184;SDS011;19550;42.872;25.494;2023-08-20T02:20:05;14.82;;;10.82;;
33184;SDS011;19550;42.872;25.494;2023-08-20T02:22:35;14.40;;;11.23;;
33184;SDS011;19550;42.872;25.494;2023-08-20T02:25:01;13.38;;;11.18;;
33184;SDS011;19550;42.872;25.494;2023-08-20T02:27:29;13.73;;;10.15;;
33184;SDS011;19550;42.872;25.494;2023-08-20T02:29:55;12.32;;;10.52;;
33184;SDS011;19550;42.872;25.494;2023-08-20T02:32:22;12.07;;;10.40;;
33184;SDS011;19550;42.872;25.494;2023-08-20T02:34:49;13.30;;;10.98;;
33184;SDS011;19550;42.872;25.494;2023-08-20T02:37:18;10.90;;;9.65;;
33184;SDS011;19550;42.872;25.494;2023-08-20T02:39:44;14.10;;;10.30;;
33184;SDS011;19550;42.872;25.494;2023-08-20T02:42:11;14.30;;;9.82;;
33184;SDS011;19550;42.872;25.494;2023-08-20T02:44:38;12.98;;;10.05;;
33184;SDS011;19550;42.872;25.494;2023-08-20T02:47:05;16.25;;;11.13;;
33184;SDS011;19550;42.872;25.494;2023-08-20T02:49:32;12.50;;;10.70;;
33184;SDS011;19550;42.872;25.494;2023-08-20T02:51:59;11.20;;;10.02;;
33184;SDS011;19550;42.872;25.494;2023-08-20T02:54:27;14.90;;;10.73;;
33184;SDS011;19550;42.872;25.494;2023-08-20T02:56:54;15.25;;;10.93;;
33184;SDS011;19550;42.872;25.494;2023-08-20T02:59:21;13.27;;;11.05;;
33184;SDS011;19550;42.872;25.494;2023-08-20T03:01:47;17.30;;;10.73;;
33184;SDS011;19550;42.872;25.494;2023-08-20T03:04:14;14.00;;;10.07;;
33184;SDS011;19550;42.872;25.494;2023-08-20T03:06:41;12.23;;;10.45;;
33184;SDS011;19550;42.872;25.494;2023-08-20T03:09:09;12.80;;;11.20;;
33184;SDS011;19550;42.872;25.494;2023-08-20T03:11:37;13.18;;;10.35;;
33184;SDS011;19550;42.872;25.494;2023-08-20T03:14:04;15.88;;;10.60;;
33184;SDS011;19550;42.872;25.494;2023-08-20T03:16:31;14.25;;;10.75;;
33184;SDS011;19550;42.872;25.494;2023-08-20T03:18:57;13.05;;;10.75;;
33184;SDS011;19550;42.872;25.494;2023-08-20T03:21:24;12.77;;;10.43;;
33184;SDS011;19550;42.872;25.494;2023-08-20T03:23:51;16.02;;;10.75;;
33184;SDS011;19550;42.872;25.494;2023-08-20T03:26:18;16.52;;;11.10;;
33184;SDS011;19550;42.872;25.494;2023-08-20T03:28:46;13.50;;;10.52;;
33184;SDS011;19550;42.872;25.494;2023-08-20T03:31:13;12.48;;;11.15;;
33184;SDS011;19550;42.872;25.494;2023-08-20T03:33:40;12.25;;;10.82;;
33184;SDS011;19550;42.872;25.494;2023-08-20T03:36:06;14.27;;;10.23;;
33184;SDS011;19550;42.872;25.494;2023-08-20T03:38:33;13.25;;;10.45;;
33184;SDS011;19550;42.872;25.494;2023-08-20T03:41:00;13.90;;;11.35;;
33184;SDS011;19550;42.872;25.494;2023-08-20T03:43:28;13.65;;;10.90;;
33184;SDS011;19550;42.872;25.494;2023-08-20T03:45:56;12.50;;;10.52;;
33184;SDS011;19550;42.872;25.494;2023-08-20T03:48:23;13.43;;;10.70;;
33184;SDS011;19550;42.872;25.494;2023-08-20T03:50:50;18.35;;;10.63;;
33184;SDS011;19550;42.872;25.494;2023-08-20T03:53:16;12.32;;;10.70;;
33184;SDS011;19550;42.872;25.494;2023-08-20T03:55:47;11.63;;;10.43;;
33184;SDS011;19550;42.872;25.494;2023-08-20T03:58:14;13.23;;;10.35;;
33184;SDS011;19550;42.872;25.494;2023-08-20T04:00:41;12.73;;;11.20;;
33184;SDS011;19550;42.872;25.494;2023-08-20T04:03:09;13.15;;;11.38;;
33184;SDS011;19550;42.872;25.494;2023-08-20T04:05:38;15.43;;;13.18;;
33184;SDS011;19550;42.872;25.494;2023-08-20T04:08:05;17.33;;;13.48;;
33184;SDS011;19550;42.872;25.494;2023-08-20T04:10:32;19.08;;;15.02;;
33184;SDS011;19550;42.872;25.494;2023-08-20T04:12:59;18.17;;;13.75;;
33184;SDS011;19550;42.872;25.494;2023-08-20T04:15:26;17.10;;;12.65;;
33184;SDS011;19550;42.872;25.494;2023-08-20T04:17:53;17.70;;;12.95;;
33184;SDS011;19550;42.872;25.494;2023-08-20T04:20:21;16.40;;;11.63;;
33184;SDS011;19550;42.872;25.494;2023-08-20T04:22:48;12.80;;;11.45;;
33184;SDS011;19550;42.872;25.494;2023-08-20T04:25:15;13.10;;;11.07;;
33184;SDS011;19550;42.872;25.494;2023-08-20T04:27:42;13.57;;;11.40;;
33184;SDS011;19550;42.872;25.494;2023-08-20T04:30:09;13.77;;;11.98;;
33184;SDS011;19550;42.872;25.494;2023-08-20T04:32:37;15.25;;;13.57;;
33184;SDS011;19550;42.872;25.494;2023-08-20T04:35:04;17.63;;;11.50;;
33184;SDS011;19550;42.872;25.494;2023-08-20T04:37:32;14.95;;;12.48;;
33184;SDS011;19550;42.872;25.494;2023-08-20T04:39:59;14.68;;;11.57;;
33184;SDS011;19550;42.872;25.494;2023-08-20T04:42:26;13.73;;;10.82;;
33184;SDS011;19550;42.872;25.494;2023-08-20T04:44:53;13.20;;;11.52;;
33184;SDS011;19550;42.872;25.494;2023-08-20T04:47:20;12.20;;;10.25;;
33184;SDS011;19550;42.872;25.494;2023-08-20T04:49:47;12.52;;;11.23;;
33184;SDS011;19550;42.872;25.494;2023-08-20T04:52:14;16.15;;;11.48;;
33184;SDS011;19550;42.872;25.494;2023-08-20T04:54:42;13.65;;;11.20;;
33184;SDS011;19550;42.872;25.494;2023-08-20T04:57:09;17.00;;;12.40;;
33184;SDS011;19550;42.872;25.494;2023-08-20T04:59:35;17.92;;;12.18;;
33184;SDS011;19550;42.872;25.494;2023-08-20T05:02:02;18.23;;;12.55;;
33184;SDS011;19550;42.872;25.494;2023-08-20T05:04:29;15.13;;;11.38;;
33184;SDS011;19550;42.872;25.494;2023-08-20T05:06:56;12.93;;;10.02;;
33184;SDS011;19550;42.872;25.494;2023-08-20T05:09:22;16.30;;;10.52;;
33184;SDS011;19550;42.872;25.494;2023-08-20T05:11:51;17.33;;;10.98;;
33184;SDS011;19550;42.872;25.494;2023-08-20T05:14:17;20.58;;;11.25;;
33184;SDS011;19550;42.872;25.494;2023-08-20T05:16:44;13.75;;;11.18;;
33184;SDS011;19550;42.872;25.494;2023-08-20T05:19:11;16.75;;;10.20;;
33184;SDS011;19550;42.872;25.494;2023-08-20T05:21:38;12.63;;;10.35;;
33184;SDS011;19550;42.872;25.494;2023-08-20T05:24:05;13.02;;;10.63;;
33184;SDS011;19550;42.872;25.494;2023-08-20T05:26:32;13.27;;;10.75;;
33184;SDS011;19550;42.872;25.494;2023-08-20T05:29:00;13.23;;;11.70;;
33184;SDS011;19550;42.872;25.494;2023-08-20T05:31:27;19.50;;;12.40;;
33184;SDS011;19550;42.872;25.494;2023-08-20T05:33:56;16.67;;;13.23;;
33184;SDS011;19550;42.872;25.494;2023-08-20T05:36:23;16.40;;;11.45;;
33184;SDS011;19550;42.872;25.494;2023-08-20T05:38:50;14.32;;;11.25;;
33184;SDS011;19550;42.872;25.494;2023-08-20T05:41:17;14.93;;;11.20;;
33184;SDS011;19550;42.872;25.494;2023-08-20T05:43:44;16.55;;;11.05;;
33184;SDS011;19550;42.872;25.494;2023-08-20T05:46:12;13.25;;;10.75;;
33184;SDS011;19550;42.872;25.494;2023-08-20T05:48:39;16.80;;;11.13;;
33184;SDS011;19550;42.872;25.494;2023-08-20T05:51:05;18.80;;;11.38;;
33184;SDS011;19550;42.872;25.494;2023-08-20T05:53:32;12.48;;;10.98;;
33184;SDS011;19550;42.872;25.494;2023-08-20T05:55:59;15.77;;;10.57;;
33184;SDS011;19550;42.872;25.494;2023-08-20T05:58:26;19.45;;;14.18;;
33184;SDS011;19550;42.872;25.494;2023-08-20T06:00:53;17.73;;;12.70;;
33184;SDS011;19550;42.872;25.494;2023-08-20T06:03:21;16.80;;;12.57;;
33184;SDS011;19550;42.872;25.494;2023-08-20T06:05:48;22.27;;;13.45;;
33184;SDS011;19550;42.872;25.494;2023-08-20T06:08:14;19.63;;;12.20;;
33184;SDS011;19550;42.872;25.494;2023-08-20T06:10:41;17.40;;;12.82;;
33184;SDS011;19550;42.872;25.494;2023-08-20T06:13:09;23.35;;;12.25;;
33184;SDS011;19550;42.872;25.494;2023-08-20T06:15:35;17.75;;;11.88;;
33184;SDS011;19550;42.872;25.494;2023-08-20T06:18:02;16.17;;;11.93;;
33184;SDS011;19550;42.872;25.494;2023-08-20T06:20:31;17.02;;;10.60;;
33184;SDS011;19550;42.872;25.494;2023-08-20T06:22:58;16.30;;;11.60;;
33184;SDS011;19550;42.872;25.494;2023-08-20T06:25:24;12.52;;;10.73;;
33184;SDS011;19550;42.872;25.494;2023-08-20T06:27:51;20.05;;;11.10;;
33184;SDS011;19550;42.872;25.494;2023-08-20T06:30:18;14.32;;;9.98;;
33184;SDS011;19550;42.872;25.494;2023-08-20T06:32:45;17.50;;;10.98;;
33184;SDS011;19550;42.872;25.494;2023-08-20T06:35:12;16.17;;;10.93;;
33184;SDS011;19550;42.872;25.494;2023-08-20T06:37:41;15.65;;;10.82;;
33184;SDS011;19550;42.872;25.494;2023-08-20T06:40:08;16.05;;;11.80;;
33184;SDS011;19550;42.872;25.494;2023-08-20T06:42:35;18.92;;;11.65;;
33184;SDS011;19550;42.872;25.494;2023-08-20T06:45:02;20.98;;;11.32;;
33184;SDS011;19550;42.872;25.494;2023-08-20T06:47:29;16.88;;;11.00;;
33184;SDS011;19550;42.872;25.494;2023-08-20T06:49:56;16.77;;;11.38;;
33184;SDS011;19550;42.872;25.494;2023-08-20T06:52:23;16.05;;;9.68;;
33184;SDS011;19550;42.872;25.494;2023-08-20T06:54:52;14.95;;;9.57;;
33184;SDS011;19550;42.872;25.494;2023-08-20T06:57:19;13.40;;;9.45;;
33184;SDS011;19550;42.872;25.494;2023-08-20T06:59:46;16.35;;;9.10;;
33184;SDS011;19550;42.872;25.494;2023-08-20T07:02:13;13.18;;;8.85;;
33184;SDS011;19550;42.872;25.494;2023-08-20T07:04:40;15.65;;;9.25;;
33184;SDS011;19550;42.872;25.494;2023-08-20T07:07:07;11.10;;;8.52;;
33184;SDS011;19550;42.872;25.494;2023-08-20T07:09:34;9.77;;;7.45;;
33184;SDS011;19550;42.872;25.494;2023-08-20T07:12:05;10.60;;;8.07;;
33184;SDS011;19550;42.872;25.494;2023-08-20T07:14:32;14.65;;;8.75;;
33184;SDS011;19550;42.872;25.494;2023-08-20T07:16:59;10.50;;;7.63;;
33184;SDS011;19550;42.872;25.494;2023-08-20T07:19:27;11.30;;;7.72;;
33184;SDS011;19550;42.872;25.494;2023-08-20T07:21:54;10.45;;;7.20;;
33184;SDS011;19550;42.872;25.494;2023-08-20T07:24:21;12.57;;;7.60;;
33184;SDS011;19550;42.872;25.494;2023-08-20T07:26:50;12.52;;;7.38;;
33184;SDS011;19550;42.872;25.494;2023-08-20T07:29:18;11.35;;;7.20;;
33184;SDS011;19550;42.872;25.494;2023-08-20T07:31:46;8.25;;;6.72;;
33184;SDS011;19550;42.872;25.494;2023-08-20T07:34:12;9.57;;;7.30;;
33184;SDS011;19550;42.872;25.494;2023-08-20T07:36:39;12.57;;;7.30;;
33184;SDS011;19550;42.872;25.494;2023-08-20T07:39:06;10.45;;;7.45;;
33184;SDS011;19550;42.872;25.494;2023-08-20T07:41:33;10.15;;;7.18;;
33184;SDS011;19550;42.872;25.494;2023-08-20T07:44:00;9.15;;;7.60;;
33184;SDS011;19550;42.872;25.494;2023-08-20T07:46:28;8.13;;;6.82;;
33184;SDS011;19550;42.872;25.494;2023-08-20T07:48:55;8.52;;;6.45;;
33184;SDS011;19550;42.872;25.494;2023-08-20T07:51:22;10.43;;;7.07;;
33184;SDS011;19550;42.872;25.494;2023-08-20T07:53:49;9.82;;;6.53;;
33184;SDS011;19550;42.872;25.494;2023-08-20T07:56:16;9.35;;;6.95;;
33184;SDS011;19550;42.872;25.494;2023-08-20T07:58:43;11.85;;;6.72;;
33184;SDS011;19550;42.872;25.494;2023-08-20T08:01:09;7.63;;;6.93;;
33184;SDS011;19550;42.872;25.494;2023-08-20T08:03:40;12.52;;;7.32;;
33184;SDS011;19550;42.872;25.494;2023-08-20T08:06:06;11.40;;;6.43;;
33184;SDS011;19550;42.872;25.494;2023-08-20T08:08:33;7.28;;;6.53;;
33184;SDS011;19550;42.872;25.494;2023-08-20T08:11:00;7.63;;;6.63;;
33184;SDS011;19550;42.872;25.494;2023-08-20T08:13:27;13.48;;;6.72;;
33184;SDS011;19550;42.872;25.494;2023-08-20T08:15:54;9.95;;;6.30;;
33184;SDS011;19550;42.872;25.494;2023-08-20T08:18:20;7.72;;;6.35;;
33184;SDS011;19550;42.872;25.494;2023-08-20T08:20:49;13.73;;;7.10;;
33184;SDS011;19550;42.872;25.494;2023-08-20T08:23:15;6.70;;;6.00;;
33184;SDS011;19550;42.872;25.494;2023-08-20T08:25:43;8.13;;;5.80;;
33184;SDS011;19550;42.872;25.494;2023-08-20T08:28:10;6.15;;;5.55;;
33184;SDS011;19550;42.872;25.494;2023-08-20T08:30:37;6.40;;;5.80;;
33184;SDS011;19550;42.872;25.494;2023-08-20T08:33:05;7.53;;;5.60;;
33184;SDS011;19550;42.872;25.494;2023-08-20T08:35:32;5.90;;;4.93;;
33184;SDS011;19550;42.872;25.494;2023-08-20T08:38:00;11.13;;;5.28;;
33184;SDS011;19550;42.872;25.494;2023-08-20T08:40:28;8.88;;;5.30;;
33184;SDS011;19550;42.872;25.494;2023-08-20T08:42:55;7.95;;;5.70;;
33184;SDS011;19550;42.872;25.494;2023-08-20T08:45:23;8.93;;;5.85;;
33184;SDS011;19550;42.872;25.494;2023-08-20T08:47:52;12.05;;;5.68;;
33184;SDS011;19550;42.872;25.494;2023-08-20T08:50:21;9.23;;;5.45;;
33184;SDS011;19550;42.872;25.494;2023-08-20T08:52:48;8.10;;;5.50;;
33184;SDS011;19550;42.872;25.494;2023-08-20T08:55:19;7.32;;;5.40;;
33184;SDS011;19550;42.872;25.494;2023-08-20T08:57:46;8.07;;;5.70;;
33184;SDS011;19550;42.872;25.494;2023-08-20T09:00:13;10.55;;;5.80;;
33184;SDS011;19550;42.872;25.494;2023-08-20T09:02:40;8.68;;;5.85;;
33184;SDS011;19550;42.872;25.494;2023-08-20T09:05:07;8.45;;;5.82;;
33184;SDS011;19550;42.872;25.494;2023-08-20T09:07:34;10.27;;;6.18;;
33184;SDS011;19550;42.872;25.494;2023-08-20T09:10:01;12.25;;;6.00;;
33184;SDS011;19550;42.872;25.494;2023-08-20T09:12:30;7.20;;;5.80;;
33184;SDS011;19550;42.872;25.494;2023-08-20T09:15:00;6.50;;;5.47;;
33184;SDS011;19550;42.872;25.494;2023-08-20T09:17:28;9.60;;;6.00;;
33184;SDS011;19550;42.872;25.494;2023-08-20T09:19:55;6.18;;;5.32;;
33184;SDS011;19550;42.872;25.494;2023-08-20T09:22:23;7.55;;;5.85;;
33184;SDS011;19550;42.872;25.494;2023-08-20T09:24:53;7.93;;;5.70;;
33184;SDS011;19550;42.872;25.494;2023-08-20T09:27:21;8.18;;;5.55;;
33184;SDS011;19550;42.872;25.494;2023-08-20T09:29:50;9.45;;;6.10;;
33184;SDS011;19550;42.872;25.494;2023-08-20T09:32:19;7.80;;;5.78;;
33184;SDS011;19550;42.872;25.494;2023-08-20T09:34:47;6.10;;;5.50;;
33184;SDS011;19550;42.872;25.494;2023-08-20T09:37:15;9.38;;;5.65;;
33184;SDS011;19550;42.872;25.494;2023-08-20T09:39:43;7.22;;;5.55;;
33184;SDS011;19550;42.872;25.494;2023-08-20T09:42:11;15.63;;;6.05;;
33184;SDS011;19550;42.872;25.494;2023-08-20T09:44:39;6.07;;;5.30;;
33184;SDS011;19550;42.872;25.494;2023-08-20T09:47:08;9.27;;;5.15;;
33184;SDS011;19550;42.872;25.494;2023-08-20T09:49:37;8.00;;;5.10;;
33184;SDS011;19550;42.872;25.494;2023-08-20T09:52:05;5.72;;;5.20;;
33184;SDS011;19550;42.872;25.494;2023-08-20T09:54:41;7.68;;;5.13;;
33184;SDS011;19550;42.872;25.494;2023-08-20T09:57:20;8.95;;;5.90;;
33184;SDS011;19550;42.872;25.494;2023-08-20T09:59:59;8.65;;;5.40;;
33184;SDS011;19550;42.872;25.494;2023-08-20T10:02:29;6.05;;;5.40;;
33184;SDS011;19550;42.872;25.494;2023-08-20T10:04:56;7.05;;;5.50;;
33184;SDS011;19550;42.872;25.494;2023-08-20T10:07:26;13.32;;;5.55;;
33184;SDS011;19550;42.872;25.494;2023-08-20T10:09:56;8.95;;;5.10;;
33184;SDS011;19550;42.872;25.494;2023-08-20T10:12:26;6.55;;;5.85;;
33184;SDS011;19550;42.872;25.494;2023-08-20T10:14:53;6.88;;;5.90;;
33184;SDS011;19550;42.872;25.494;2023-08-20T10:17:21;10.50;;;5.90;;
33184;SDS011;19550;42.872;25.494;2023-08-20T10:19:50;9.93;;;6.10;;
33184;SDS011;19550;42.872;25.494;2023-08-20T10:22:18;9.23;;;6.18;;
33184;SDS011;19550;42.872;25.494;2023-08-20T10:24:48;11.52;;;5.63;;
33184;SDS011;19550;42.872;25.494;2023-08-20T10:27:25;8.88;;;5.72;;
33184;SDS011;19550;42.872;25.494;2023-08-20T10:29:52;8.60;;;5.43;;
33184;SDS011;19550;42.872;25.494;2023-08-20T10:32:20;8.23;;;6.03;;
33184;SDS011;19550;42.872;25.494;2023-08-20T10:35:08;9.93;;;5.72;;
33184;SDS011;19550;42.872;25.494;2023-08-20T10:37:35;8.98;;;6.07;;
33184;SDS011;19550;42.872;25.494;2023-08-20T10:40:02;9.45;;;5.88;;
33184;SDS011;19550;42.872;25.494;2023-08-20T10:42:30;9.60;;;6.57;;
33184;SDS011;19550;42.872;25.494;2023-08-20T10:45:01;10.13;;;6.47;;
33184;SDS011;19550;42.872;25.494;2023-08-20T10:47:42;11.00;;;6.03;;
33184;SDS011;19550;42.872;25.494;2023-08-20T10:50:11;14.95;;;6.82;;
33184;SDS011;19550;42.872;25.494;2023-08-20T10:52:46;10.82;;;6.10;;
33184;SDS011;19550;42.872;25.494;2023-08-20T10:55:14;8.75;;;5.97;;
33184;SDS011;19550;42.872;25.494;2023-08-20T10:57:42;9.68;;;6.30;;
33184;SDS011;19550;42.872;25.494;2023-08-20T11:00:09;9.18;;;6.43;;
33184;SDS011;19550;42.872;25.494;2023-08-20T11:02:41;8.15;;;6.38;;
33184;SDS011;19550;42.872;25.494;2023-08-20T11:05:17;7.05;;;6.28;;
33184;SDS011;19550;42.872;25.494;2023-08-20T11:07:45;8.00;;;6.50;;
33184;SDS011;19550;42.872;25.494;2023-08-20T11:10:13;14.10;;;6.70;;
33184;SDS011;19550;42.872;25.494;2023-08-20T11:12:41;10.88;;;6.07;;
33184;SDS011;19550;42.872;25.494;2023-08-20T11:15:09;8.77;;;6.30;;
33184;SDS011;19550;42.872;25.494;2023-08-20T11:17:40;8.43;;;5.55;;
33184;SDS011;19550;42.872;25.494;2023-08-20T11:20:08;11.77;;;7.05;;
33184;SDS011;19550;42.872;25.494;2023-08-20T11:22:38;8.35;;;6.70;;
33184;SDS011;19550;42.872;25.494;2023-08-20T11:25:05;8.63;;;5.90;;
33184;SDS011;19550;42.872;25.494;2023-08-20T11:27:32;7.22;;;6.00;;
33184;SDS011;19550;42.872;25.494;2023-08-20T11:30:00;7.10;;;6.22;;
33184;SDS011;19550;42.872;25.494;2023-08-20T11:32:29;7.45;;;5.95;;
33184;SDS011;19550;42.872;25.494;2023-08-20T11:34:57;9.65;;;6.35;;
33184;SDS011;19550;42.872;25.494;2023-08-20T11:37:23;6.78;;;5.50;;
33184;SDS011;19550;42.872;25.494;2023-08-20T11:39:52;9.82;;;5.95;;
33184;SDS011;19550;42.872;25.494;2023-08-20T11:42:18;10.00;;;5.68;;
33184;SDS011;19550;42.872;25.494;2023-08-20T11:44:46;9.80;;;5.95;;
33184;SDS011;19550;42.872;25.494;2023-08-20T11:47:13;10.18;;;5.85;;
33184;SDS011;19550;42.872;25.494;2023-08-20T11:49:41;8.07;;;5.80;;
33184;SDS011;19550;42.872;25.494;2023-08-20T11:52:08;9.13;;;6.13;;
33184;SDS011;19550;42.872;25.494;2023-08-20T11:54:35;7.43;;;6.43;;
33184;SDS011;19550;42.872;25.494;2023-08-20T11:57:04;12.20;;;6.13;;
33184;SDS011;19550;42.872;25.494;2023-08-20T12:01:58;7.55;;;5.82;;
33184;SDS011;19550;42.872;25.494;2023-08-20T12:04:26;10.60;;;6.72;;
33184;SDS011;19550;42.872;25.494;2023-08-20T12:07:01;15.38;;;5.97;;
33184;SDS011;19550;42.872;25.494;2023-08-20T12:09:30;10.88;;;6.13;;
33184;SDS011;19550;42.872;25.494;2023-08-20T12:11:57;9.82;;;5.88;;
33184;SDS011;19550;42.872;25.494;2023-08-20T12:14:26;11.52;;;5.88;;
33184;SDS011;19550;42.872;25.494;2023-08-20T12:16:53;7.07;;;5.67;;
33184;SDS011;19550;42.872;25.494;2023-08-20T12:19:20;8.00;;;6.25;;
33184;SDS011;19550;42.872;25.494;2023-08-20T12:21:47;8.50;;;5.88;;
33184;SDS011;19550;42.872;25.494;2023-08-20T12:24:15;8.20;;;5.80;;
33184;SDS011;19550;42.872;25.494;2023-08-20T12:26:44;8.82;;;6.43;;
33184;SDS011;19550;42.872;25.494;2023-08-20T12:29:11;10.10;;;5.90;;
33184;SDS011;19550;42.872;25.494;2023-08-20T12:31:39;7.32;;;6.38;;
33184;SDS011;19550;42.872;25.494;2023-08-20T12:36:34;10.70;;;6.18;;
33184;SDS011;19550;42.872;25.494;2023-08-20T12:39:01;10.20;;;5.90;;
33184;SDS011;19550;42.872;25.494;2023-08-20T12:41:29;6.67;;;5.60;;
33184;SDS011;19550;42.872;25.494;2023-08-20T12:43:56;9.30;;;5.72;;
33184;SDS011;19550;42.872;25.494;2023-08-20T12:46:23;8.07;;;5.63;;
33184;SDS011;19550;42.872;25.494;2023-08-20T12:48:52;9.60;;;6.15;;
33184;SDS011;19550;42.872;25.494;2023-08-20T12:51:18;11.23;;;6.03;;
33184;SDS011;19550;42.872;25.494;2023-08-20T12:53:45;6.78;;;5.78;;
33184;SDS011;19550;42.872;25.494;2023-08-20T12:56:12;10.55;;;5.65;;
33184;SDS011;19550;42.872;25.494;2023-08-20T12:58:40;8.95;;;5.88;;
33184;SDS011;19550;42.872;25.494;2023-08-20T13:01:07;14.40;;;5.57;;
33184;SDS011;19550;42.872;25.494;2023-08-20T13:03:34;8.05;;;5.45;;
33184;SDS011;19550;42.872;25.494;2023-08-20T13:06:03;8.02;;;5.57;;
33184;SDS011;19550;42.872;25.494;2023-08-20T13:10:57;8.65;;;5.80;;
33184;SDS011;19550;42.872;25.494;2023-08-20T13:13:26;7.80;;;6.05;;
33184;SDS011;19550;42.872;25.494;2023-08-20T13:15:53;6.53;;;5.72;;
33184;SDS011;19550;42.872;25.494;2023-08-20T13:18:21;7.82;;;5.88;;
33184;SDS011;19550;42.872;25.494;2023-08-20T13:20:50;10.73;;;6.18;;
33184;SDS011;19550;42.872;25.494;2023-08-20T13:23:19;7.47;;;6.00;;
33184;SDS011;19550;42.872;25.494;2023-08-20T13:25:46;9.07;;;6.00;;
33184;SDS011;19550;42.872;25.494;2023-08-20T13:28:13;13.57;;;6.00;;
33184;SDS011;19550;42.872;25.494;2023-08-20T13:30:40;10.20;;;5.80;;
33184;SDS011;19550;42.872;25.494;2023-08-20T13:33:07;8.88;;;5.65;;
33184;SDS011;19550;42.872;25.494;2023-08-20T13:35:34;9.02;;;6.30;;
33184;SDS011;19550;42.872;25.494;2023-08-20T13:38:01;10.38;;;5.43;;
33184;SDS011;19550;42.872;25.494;2023-08-20T13:40:30;11.80;;;6.05;;
33184;SDS011;19550;42.872;25.494;2023-08-20T13:42:57;9.85;;;6.63;;
33184;SDS011;19550;42.872;25.494;2023-08-20T13:45:25;8.50;;;5.80;;
33184;SDS011;19550;42.872;25.494;2023-08-20T13:47:53;6.03;;;5.47;;
33184;SDS011;19550;42.872;25.494;2023-08-20T13:50:21;12.52;;;6.35;;
33184;SDS011;19550;42.872;25.494;2023-08-20T13:52:48;8.50;;;5.72;;
33184;SDS011;19550;42.872;25.494;2023-08-20T13:55:16;7.25;;;6.00;;
33184;SDS011;19550;42.872;25.494;2023-08-20T13:57:44;6.93;;;6.20;;
33184;SDS011;19550;42.872;25.494;2023-08-20T14:00:11;8.23;;;5.90;;
33184;SDS011;19550;42.872;25.494;2023-08-20T14:02:38;29.77;;;20.23;;
33184;SDS011;19550;42.872;25.494;2023-08-20T14:05:05;41.45;;;30.45;;
33184;SDS011;19550;42.872;25.494;2023-08-20T14:07:33;20.42;;;13.85;;
33184;SDS011;19550;42.872;25.494;2023-08-20T14:10:00;12.40;;;9.27;;
33184;SDS011;19550;42.872;25.494;2023-08-20T14:12:27;7.57;;;6.57;;
33184;SDS011;19550;42.872;25.494;2023-08-20T14:14:55;10.02;;;6.43;;
33184;SDS011;19550;42.872;25.494;2023-08-20T14:17:22;31.50;;;28.10;;
33184;SDS011;19550;42.872;25.494;2023-08-20T14:19:50;20.30;;;15.82;;
33184;SDS011;19550;42.872;25.494;2023-08-20T14:22:17;27.27;;;20.70;;
33184;SDS011;19550;42.872;25.494;2023-08-20T14:24:44;9.55;;;7.75;;
33184;SDS011;19550;42.872;25.494;2023-08-20T14:27:11;16.70;;;12.90;;
33184;SDS011;19550;42.872;25.494;2023-08-20T14:29:38;46.35;;;35.60;;
33184;SDS011;19550;42.872;25.494;2023-08-20T14:32:08;13.02;;;9.60;;